Aviation Digital Data Service (ADDS)

Output produced by METARs form (2028 UTC 20 August 2019)
found at http://www.aviationweather.gov/metar/data/
 
METAR text: RORY 202000Z AUTO 14012KT 9999 FEW012 SCT014 BKN019 28/25 Q1008
Conditions at: RORY (YORON ISLAND , JP) observed 2000 UTC 20 August 2019
Temperature: 28.0°C (82°F)
Dewpoint: 25.0°C (77°F) [RH = 84%]
Pressure (altimeter): 29.76 inches Hg (1008.0 mb)
Winds: from the SE (140 degrees) at 14 MPH (12 knots; 6.2 m/s)
Visibility: 6 or more miles (10+ km)
Ceiling: 1900 feet AGL
Clouds: few clouds at 1200 feet AGL
scattered clouds at 1400 feet AGL
broken clouds at 1900 feet AGL
Weather: no significant weather observed at this time

METAR text: RORY 201900Z AUTO 15010KT 9999 FEW012 28/26 Q1008
Conditions at: RORY (YORON ISLAND , JP) observed 1900 UTC 20 August 2019
Temperature: 28.0°C (82°F)
Dewpoint: 26.0°C (79°F) [RH = 89%]
Pressure (altimeter): 29.76 inches Hg (1008.0 mb)
Winds: from the SSE (150 degrees) at 12 MPH (10 knots; 5.1 m/s)
Visibility: 6 or more miles (10+ km)
Ceiling: at least 12,000 feet AGL
Clouds: few clouds at 1200 feet AGL
Weather: no significant weather observed at this time

METAR text: RORY 201800Z AUTO 14012KT 9999 SCT015 SCT050 28/25 Q1008
Conditions at: RORY (YORON ISLAND , JP) observed 1800 UTC 20 August 2019
Temperature: 28.0°C (82°F)
Dewpoint: 25.0°C (77°F) [RH = 84%]
Pressure (altimeter): 29.76 inches Hg (1008.0 mb)
Winds: from the SE (140 degrees) at 14 MPH (12 knots; 6.2 m/s)
Visibility: 6 or more miles (10+ km)
Ceiling: at least 12,000 feet AGL
Clouds: scattered clouds at 1500 feet AGL
scattered clouds at 5000 feet AGL
Weather: no significant weather observed at this time

METAR text: RORY 201700Z AUTO 15010KT 9999 SCT012 28/26 Q1008
Conditions at: RORY (YORON ISLAND , JP) observed 1700 UTC 20 August 2019
Temperature: 28.0°C (82°F)
Dewpoint: 26.0°C (79°F) [RH = 89%]
Pressure (altimeter): 29.76 inches Hg (1008.0 mb)
Winds: from the SSE (150 degrees) at 12 MPH (10 knots; 5.1 m/s)
Visibility: 6 or more miles (10+ km)
Ceiling: at least 12,000 feet AGL
Clouds: scattered clouds at 1200 feet AGL
Weather: no significant weather observed at this time

METAR text: RORY 201600Z AUTO 14012KT 9999 NSC 28/26 Q1008
Conditions at: RORY (YORON ISLAND , JP) observed 1600 UTC 20 August 2019
Temperature: 28.0°C (82°F)
Dewpoint: 26.0°C (79°F) [RH = 89%]
Pressure (altimeter): 29.76 inches Hg (1008.0 mb)
Winds: from the SE (140 degrees) at 14 MPH (12 knots; 6.2 m/s)
Visibility: 6 or more miles (10+ km)
Ceiling: at least 12,000 feet AGL
Clouds: sky clear below 12,000 feet AGL
Weather: no significant weather observed at this time

METAR text: RORY 201500Z AUTO 14013KT 9999 FEW015 //////TCU 28/25 Q1008
Conditions at: RORY (YORON ISLAND , JP) observed 1500 UTC 20 August 2019
Temperature: 28.0°C (82°F)
Dewpoint: 25.0°C (77°F) [RH = 84%]
Pressure (altimeter): 29.76 inches Hg (1008.0 mb)
Winds: from the SE (140 degrees) at 15 MPH (13 knots; 6.7 m/s)
Visibility: 6 or more miles (10+ km)
Ceiling: at least 12,000 feet AGL
Clouds: few clouds at 1500 feet AGL
Weather: no significant weather observed at this time

METAR text: RORY 201400Z AUTO 14013KT 9999 FEW013 28/26 Q1009
Conditions at: RORY (YORON ISLAND , JP) observed 1400 UTC 20 August 2019
Temperature: 28.0°C (82°F)
Dewpoint: 26.0°C (79°F) [RH = 89%]
Pressure (altimeter): 29.79 inches Hg (1009.0 mb)
Winds: from the SE (140 degrees) at 15 MPH (13 knots; 6.7 m/s)
Visibility: 6 or more miles (10+ km)
Ceiling: at least 12,000 feet AGL
Clouds: few clouds at 1300 feet AGL
Weather: no significant weather observed at this time

METAR text: RORY 201300Z AUTO 14012KT 9999 SCT014 28/26 Q1009
Conditions at: RORY (YORON ISLAND , JP) observed 1300 UTC 20 August 2019
Temperature: 28.0°C (82°F)
Dewpoint: 26.0°C (79°F) [RH = 89%]
Pressure (altimeter): 29.79 inches Hg (1009.0 mb)
Winds: from the SE (140 degrees) at 14 MPH (12 knots; 6.2 m/s)
Visibility: 6 or more miles (10+ km)
Ceiling: at least 12,000 feet AGL
Clouds: scattered clouds at 1400 feet AGL
Weather: no significant weather observed at this time

METAR text: RORY 201200Z AUTO 15013KT 9999 SCT015 28/26 Q1008
Conditions at: RORY (YORON ISLAND , JP) observed 1200 UTC 20 August 2019
Temperature: 28.0°C (82°F)
Dewpoint: 26.0°C (79°F) [RH = 89%]
Pressure (altimeter): 29.76 inches Hg (1008.0 mb)
Winds: from the SSE (150 degrees) at 15 MPH (13 knots; 6.7 m/s)
Visibility: 6 or more miles (10+ km)
Ceiling: at least 12,000 feet AGL
Clouds: scattered clouds at 1500 feet AGL
Weather: no significant weather observed at this time

METAR text: RORY 201100Z AUTO 15012KT 9999 FEW015 BKN018 28/26 Q1008
Conditions at: RORY (YORON ISLAND , JP) observed 1100 UTC 20 August 2019
Temperature: 28.0°C (82°F)
Dewpoint: 26.0°C (79°F) [RH = 89%]
Pressure (altimeter): 29.76 inches Hg (1008.0 mb)
Winds: from the SSE (150 degrees) at 14 MPH (12 knots; 6.2 m/s)
Visibility: 6 or more miles (10+ km)
Ceiling: 1800 feet AGL
Clouds: few clouds at 1500 feet AGL
broken clouds at 1800 feet AGL
Weather: no significant weather observed at this time

METAR text: RORY 201000Z AUTO 14012KT 9999 FEW015 28/26 Q1007
Conditions at: RORY (YORON ISLAND , JP) observed 1000 UTC 20 August 2019
Temperature: 28.0°C (82°F)
Dewpoint: 26.0°C (79°F) [RH = 89%]
Pressure (altimeter): 29.73 inches Hg (1007.0 mb)
Winds: from the SE (140 degrees) at 14 MPH (12 knots; 6.2 m/s)
Visibility: 6 or more miles (10+ km)
Ceiling: at least 12,000 feet AGL
Clouds: few clouds at 1500 feet AGL
Weather: no significant weather observed at this time

METAR text: RORY 200900Z AUTO 14013KT 9999 FEW015 SCT090 BKN130 28/26 Q1007
Conditions at: RORY (YORON ISLAND , JP) observed 0900 UTC 20 August 2019
Temperature: 28.0°C (82°F)
Dewpoint: 26.0°C (79°F) [RH = 89%]
Pressure (altimeter): 29.73 inches Hg (1007.0 mb)
Winds: from the SE (140 degrees) at 15 MPH (13 knots; 6.7 m/s)
Visibility: 6 or more miles (10+ km)
Ceiling: 13000 feet AGL
Clouds: few clouds at 1500 feet AGL
scattered clouds at 9000 feet AGL
broken clouds at 13000 feet AGL
Weather: no significant weather observed at this time

METAR text: RORY 200842Z AUTO 14016G26KT 9999 -RA FEW014 SCT032 BKN090 //////TCU 27/25 Q1007 RMK A2975 TCU OHD MOV NW
Conditions at: RORY (YORON ISLAND , JP) observed 0842 UTC 20 August 2019
Temperature: 27.0°C (81°F)
Dewpoint: 25.0°C (77°F) [RH = 89%]
Pressure (altimeter): 29.73 inches Hg (1007.0 mb)
Winds: from the SE (140 degrees) at 18 MPH (16 knots; 8.2 m/s)
gusting to 30 MPH (26 knots; 13.4 m/s)
Visibility: 6 or more miles (10+ km)
Ceiling: 9000 feet AGL
Clouds: few clouds at 1400 feet AGL
scattered clouds at 3200 feet AGL
broken clouds at 9000 feet AGL
Weather: -RA  (light rain)

METAR text: RORY 200836Z AUTO 14015G26KT 4400 -RA BR FEW014 SCT021 28/25 Q1007 RMK A2975
Conditions at: RORY (YORON ISLAND , JP) observed 0836 UTC 20 August 2019
Temperature: 28.0°C (82°F)
Dewpoint: 25.0°C (77°F) [RH = 84%]
Pressure (altimeter): 29.73 inches Hg (1007.0 mb)
Winds: from the SE (140 degrees) at 17 MPH (15 knots; 7.7 m/s)
gusting to 30 MPH (26 knots; 13.4 m/s)
Visibility: 2.73 miles (4.39 km)
Ceiling: at least 12,000 feet AGL
Clouds: few clouds at 1400 feet AGL
scattered clouds at 2100 feet AGL
Weather: -RA BR  (light rain, mist)

METAR text: RORY 200800Z AUTO 15014KT 9999 //////TCU 30/26 Q1007
Conditions at: RORY (YORON ISLAND , JP) observed 0800 UTC 20 August 2019
Temperature: 30.0°C (86°F)
Dewpoint: 26.0°C (79°F) [RH = 79%]
Pressure (altimeter): 29.73 inches Hg (1007.0 mb)
Winds: from the SSE (150 degrees) at 16 MPH (14 knots; 7.2 m/s)
Visibility: 6 or more miles (10+ km)
Ceiling: unknown
Clouds: missing
Weather: no significant weather observed at this time

METAR text: RORY 200700Z AUTO 15013KT 9999 FEW032 //////TCU 30/27 Q1007
Conditions at: RORY (YORON ISLAND , JP) observed 0700 UTC 20 August 2019
Temperature: 30.0°C (86°F)
Dewpoint: 27.0°C (81°F) [RH = 84%]
Pressure (altimeter): 29.73 inches Hg (1007.0 mb)
Winds: from the SSE (150 degrees) at 15 MPH (13 knots; 6.7 m/s)
Visibility: 6 or more miles (10+ km)
Ceiling: at least 12,000 feet AGL
Clouds: few clouds at 3200 feet AGL
Weather: no significant weather observed at this time

METAR text: RORY 200600Z AUTO 15014KT 9999 FEW016 //////TCU 31/27 Q1007
Conditions at: RORY (YORON ISLAND , JP) observed 0600 UTC 20 August 2019
Temperature: 31.0°C (88°F)
Dewpoint: 27.0°C (81°F) [RH = 79%]
Pressure (altimeter): 29.73 inches Hg (1007.0 mb)
Winds: from the SSE (150 degrees) at 16 MPH (14 knots; 7.2 m/s)
Visibility: 6 or more miles (10+ km)
Ceiling: at least 12,000 feet AGL
Clouds: few clouds at 1600 feet AGL
Weather: no significant weather observed at this time

METAR text: RORY 200500Z AUTO 15013KT 9999 FEW015 SCT050 //////TCU 31/27 Q1007
Conditions at: RORY (YORON ISLAND , JP) observed 0500 UTC 20 August 2019
Temperature: 31.0°C (88°F)
Dewpoint: 27.0°C (81°F) [RH = 79%]
Pressure (altimeter): 29.73 inches Hg (1007.0 mb)
Winds: from the SSE (150 degrees) at 15 MPH (13 knots; 6.7 m/s)
Visibility: 6 or more miles (10+ km)
Ceiling: at least 12,000 feet AGL
Clouds: few clouds at 1500 feet AGL
scattered clouds at 5000 feet AGL
Weather: no significant weather observed at this time

METAR text: RORY 200400Z AUTO 16016KT 9999 FEW017 31/27 Q1007
Conditions at: RORY (YORON ISLAND , JP) observed 0400 UTC 20 August 2019
Temperature: 31.0°C (88°F)
Dewpoint: 27.0°C (81°F) [RH = 79%]
Pressure (altimeter): 29.73 inches Hg (1007.0 mb)
Winds: from the SSE (160 degrees) at 18 MPH (16 knots; 8.2 m/s)
Visibility: 6 or more miles (10+ km)
Ceiling: at least 12,000 feet AGL
Clouds: few clouds at 1700 feet AGL
Weather: no significant weather observed at this time

METAR text: RORY 200300Z AUTO 16014KT 9999 FEW017 SCT019 BKN023 31/27 Q1007
Conditions at: RORY (YORON ISLAND , JP) observed 0300 UTC 20 August 2019
Temperature: 31.0°C (88°F)
Dewpoint: 27.0°C (81°F) [RH = 79%]
Pressure (altimeter): 29.73 inches Hg (1007.0 mb)
Winds: from the SSE (160 degrees) at 16 MPH (14 knots; 7.2 m/s)
Visibility: 6 or more miles (10+ km)
Ceiling: 2300 feet AGL
Clouds: few clouds at 1700 feet AGL
scattered clouds at 1900 feet AGL
broken clouds at 2300 feet AGL
Weather: no significant weather observed at this time

METAR text: RORY 200200Z AUTO 16015KT 9999 FEW019 SCT021 30/27 Q1007
Conditions at: RORY (YORON ISLAND , JP) observed 0200 UTC 20 August 2019
Temperature: 30.0°C (86°F)
Dewpoint: 27.0°C (81°F) [RH = 84%]
Pressure (altimeter): 29.73 inches Hg (1007.0 mb)
Winds: from the SSE (160 degrees) at 17 MPH (15 knots; 7.7 m/s)
Visibility: 6 or more miles (10+ km)
Ceiling: at least 12,000 feet AGL
Clouds: few clouds at 1900 feet AGL
scattered clouds at 2100 feet AGL
Weather: no significant weather observed at this time

METAR text: RORY 200100Z AUTO 16015KT 9999 FEW017 SCT021 30/27 Q1007
Conditions at: RORY (YORON ISLAND , JP) observed 0100 UTC 20 August 2019
Temperature: 30.0°C (86°F)
Dewpoint: 27.0°C (81°F) [RH = 84%]
Pressure (altimeter): 29.73 inches Hg (1007.0 mb)
Winds: from the SSE (160 degrees) at 17 MPH (15 knots; 7.7 m/s)
Visibility: 6 or more miles (10+ km)
Ceiling: at least 12,000 feet AGL
Clouds: few clouds at 1700 feet AGL
scattered clouds at 2100 feet AGL
Weather: no significant weather observed at this time

METAR text: RORY 200000Z AUTO 16014KT 9999 BKN016 29/27 Q1007
Conditions at: RORY (YORON ISLAND , JP) observed 0000 UTC 20 August 2019
Temperature: 29.0°C (84°F)
Dewpoint: 27.0°C (81°F) [RH = 89%]
Pressure (altimeter): 29.73 inches Hg (1007.0 mb)
Winds: from the SSE (160 degrees) at 16 MPH (14 knots; 7.2 m/s)
Visibility: 6 or more miles (10+ km)
Ceiling: 1600 feet AGL
Clouds: broken clouds at 1600 feet AGL
Weather: no significant weather observed at this time

METAR text: RORY 192300Z AUTO 17013KT 9999 FEW014 SCT019 BKN021 28/26 Q1007
Conditions at: RORY (YORON ISLAND , JP) observed 2300 UTC 19 August 2019
Temperature: 28.0°C (82°F)
Dewpoint: 26.0°C (79°F) [RH = 89%]
Pressure (altimeter): 29.73 inches Hg (1007.0 mb)
Winds: from the S (170 degrees) at 15 MPH (13 knots; 6.7 m/s)
Visibility: 6 or more miles (10+ km)
Ceiling: 2100 feet AGL
Clouds: few clouds at 1400 feet AGL
scattered clouds at 1900 feet AGL
broken clouds at 2100 feet AGL
Weather: no significant weather observed at this time

METAR text: RORY 192200Z AUTO 17014KT 9999 FEW015 BKN017 28/26 Q1006
Conditions at: RORY (YORON ISLAND , JP) observed 2200 UTC 19 August 2019
Temperature: 28.0°C (82°F)
Dewpoint: 26.0°C (79°F) [RH = 89%]
Pressure (altimeter): 29.70 inches Hg (1006.0 mb)
Winds: from the S (170 degrees) at 16 MPH (14 knots; 7.2 m/s)
Visibility: 6 or more miles (10+ km)
Ceiling: 1700 feet AGL
Clouds: few clouds at 1500 feet AGL
broken clouds at 1700 feet AGL
Weather: no significant weather observed at this time

METAR text: RORY 192100Z AUTO 17012KT 9999 FEW013 SCT028 BKN050 //////TCU 27/26 Q1006
Conditions at: RORY (YORON ISLAND , JP) observed 2100 UTC 19 August 2019
Temperature: 27.0°C (81°F)
Dewpoint: 26.0°C (79°F) [RH = 94%]
Pressure (altimeter): 29.70 inches Hg (1006.0 mb)
Winds: from the S (170 degrees) at 14 MPH (12 knots; 6.2 m/s)
Visibility: 6 or more miles (10+ km)
Ceiling: 5000 feet AGL
Clouds: few clouds at 1300 feet AGL
scattered clouds at 2800 feet AGL
broken clouds at 5000 feet AGL
Weather: no significant weather observed at this time

METAR text: RORY 192000Z AUTO 18012KT 9999 FEW015 SCT018 BKN021 28/26 Q1006
Conditions at: RORY (YORON ISLAND , JP) observed 2000 UTC 19 August 2019
Temperature: 28.0°C (82°F)
Dewpoint: 26.0°C (79°F) [RH = 89%]
Pressure (altimeter): 29.70 inches Hg (1006.0 mb)
Winds: from the S (180 degrees) at 14 MPH (12 knots; 6.2 m/s)
Visibility: 6 or more miles (10+ km)
Ceiling: 2100 feet AGL
Clouds: few clouds at 1500 feet AGL
scattered clouds at 1800 feet AGL
broken clouds at 2100 feet AGL
Weather: no significant weather observed at this time

METAR text: RORY 191900Z AUTO 18014KT 9999 SCT014 BKN026 BKN031 //////TCU 27/26 Q1006
Conditions at: RORY (YORON ISLAND , JP) observed 1900 UTC 19 August 2019
Temperature: 27.0°C (81°F)
Dewpoint: 26.0°C (79°F) [RH = 94%]
Pressure (altimeter): 29.70 inches Hg (1006.0 mb)
Winds: from the S (180 degrees) at 16 MPH (14 knots; 7.2 m/s)
Visibility: 6 or more miles (10+ km)
Ceiling: 2600 feet AGL
Clouds: scattered clouds at 1400 feet AGL
broken clouds at 2600 feet AGL
broken clouds at 3100 feet AGL
Weather: no significant weather observed at this time

METAR text: RORY 191800Z AUTO 17012KT 9999 -RA FEW011 SCT036 BKN060 //////CB 27/25 Q1006
Conditions at: RORY (YORON ISLAND , JP) observed 1800 UTC 19 August 2019
Temperature: 27.0°C (81°F)
Dewpoint: 25.0°C (77°F) [RH = 89%]
Pressure (altimeter): 29.70 inches Hg (1006.0 mb)
Winds: from the S (170 degrees) at 14 MPH (12 knots; 6.2 m/s)
Visibility: 6 or more miles (10+ km)
Ceiling: 6000 feet AGL
Clouds: few clouds at 1100 feet AGL
scattered clouds at 3600 feet AGL
broken clouds at 6000 feet AGL
Weather: -RA  (light rain)

METAR text: RORY 191700Z AUTO 16013KT 9999 FEW011 SCT035 BKN037 //////TCU 27/26 Q1006
Conditions at: RORY (YORON ISLAND , JP) observed 1700 UTC 19 August 2019
Temperature: 27.0°C (81°F)
Dewpoint: 26.0°C (79°F) [RH = 94%]
Pressure (altimeter): 29.70 inches Hg (1006.0 mb)
Winds: from the SSE (160 degrees) at 15 MPH (13 knots; 6.7 m/s)
Visibility: 6 or more miles (10+ km)
Ceiling: 3700 feet AGL
Clouds: few clouds at 1100 feet AGL
scattered clouds at 3500 feet AGL
broken clouds at 3700 feet AGL
Weather: no significant weather observed at this time

METAR text: RORY 191600Z AUTO 18013G25KT 9000 RA FEW003 SCT013 BKN023 //////TCU 26/25 Q1006
Conditions at: RORY (YORON ISLAND , JP) observed 1600 UTC 19 August 2019
Temperature: 26.0°C (79°F)
Dewpoint: 25.0°C (77°F) [RH = 94%]
Pressure (altimeter): 29.70 inches Hg (1006.0 mb)
Winds: from the S (180 degrees) at 15 MPH (13 knots; 6.7 m/s)
gusting to 29 MPH (25 knots; 12.9 m/s)
Visibility: 6 miles ( 9 km)
Ceiling: 2300 feet AGL
Clouds: few clouds at 300 feet AGL
scattered clouds at 1300 feet AGL
broken clouds at 2300 feet AGL
Weather: RA  (moderate rain)

METAR text: RORY 191500Z AUTO 15013KT 4400 -RA BR FEW004 BKN013 BKN018 //////TCU 27/26 Q1007
Conditions at: RORY (YORON ISLAND , JP) observed 1500 UTC 19 August 2019
Temperature: 27.0°C (81°F)
Dewpoint: 26.0°C (79°F) [RH = 94%]
Pressure (altimeter): 29.73 inches Hg (1007.0 mb)
Winds: from the SSE (150 degrees) at 15 MPH (13 knots; 6.7 m/s)
Visibility: 2.73 miles (4.39 km)
Ceiling: 1300 feet AGL
Clouds: few clouds at 400 feet AGL
broken clouds at 1300 feet AGL
broken clouds at 1800 feet AGL
Weather: -RA BR  (light rain, mist)

METAR text: RORY 191400Z AUTO 20008KT 9999 FEW004 SCT017 BKN029 //////TCU 27/26 Q1007
Conditions at: RORY (YORON ISLAND , JP) observed 1400 UTC 19 August 2019
Temperature: 27.0°C (81°F)
Dewpoint: 26.0°C (79°F) [RH = 94%]
Pressure (altimeter): 29.73 inches Hg (1007.0 mb)
Winds: from the SSW (200 degrees) at 9 MPH (8 knots; 4.1 m/s)
Visibility: 6 or more miles (10+ km)
Ceiling: 2900 feet AGL
Clouds: few clouds at 400 feet AGL
scattered clouds at 1700 feet AGL
broken clouds at 2900 feet AGL
Weather: no significant weather observed at this time

METAR text: RORY 191300Z AUTO 16011KT 9999 FEW016 BKN049 //////TCU 28/26 Q1006
Conditions at: RORY (YORON ISLAND , JP) observed 1300 UTC 19 August 2019
Temperature: 28.0°C (82°F)
Dewpoint: 26.0°C (79°F) [RH = 89%]
Pressure (altimeter): 29.70 inches Hg (1006.0 mb)
Winds: from the SSE (160 degrees) at 13 MPH (11 knots; 5.7 m/s)
Visibility: 6 or more miles (10+ km)
Ceiling: 4900 feet AGL
Clouds: few clouds at 1600 feet AGL
broken clouds at 4900 feet AGL
Weather: no significant weather observed at this time

METAR text: RORY 191200Z AUTO 17011KT 9999 FEW017 28/26 Q1005
Conditions at: RORY (YORON ISLAND , JP) observed 1200 UTC 19 August 2019
Temperature: 28.0°C (82°F)
Dewpoint: 26.0°C (79°F) [RH = 89%]
Pressure (altimeter): 29.68 inches Hg (1005.0 mb)
Winds: from the S (170 degrees) at 13 MPH (11 knots; 5.7 m/s)
Visibility: 6 or more miles (10+ km)
Ceiling: at least 12,000 feet AGL
Clouds: few clouds at 1700 feet AGL
Weather: no significant weather observed at this time

METAR text: RORY 191100Z AUTO 17011KT 9999 FEW014 SCT031 29/26 Q1005
Conditions at: RORY (YORON ISLAND , JP) observed 1100 UTC 19 August 2019
Temperature: 29.0°C (84°F)
Dewpoint: 26.0°C (79°F) [RH = 84%]
Pressure (altimeter): 29.68 inches Hg (1005.0 mb)
Winds: from the S (170 degrees) at 13 MPH (11 knots; 5.7 m/s)
Visibility: 6 or more miles (10+ km)
Ceiling: at least 12,000 feet AGL
Clouds: few clouds at 1400 feet AGL
scattered clouds at 3100 feet AGL
Weather: no significant weather observed at this time

METAR text: RORY 191000Z AUTO 15007KT 9999 NSC 28/26 Q1004
Conditions at: RORY (YORON ISLAND , JP) observed 1000 UTC 19 August 2019
Temperature: 28.0°C (82°F)
Dewpoint: 26.0°C (79°F) [RH = 89%]
Pressure (altimeter): 29.65 inches Hg (1004.0 mb)
Winds: from the SSE (150 degrees) at 8 MPH (7 knots; 3.6 m/s)
Visibility: 6 or more miles (10+ km)
Ceiling: at least 12,000 feet AGL
Clouds: sky clear below 12,000 feet AGL
Weather: no significant weather observed at this time

METAR text: RORY 190900Z AUTO 14006KT 9999 NSC 29/27 Q1004
Conditions at: RORY (YORON ISLAND , JP) observed 0900 UTC 19 August 2019
Temperature: 29.0°C (84°F)
Dewpoint: 27.0°C (81°F) [RH = 89%]
Pressure (altimeter): 29.65 inches Hg (1004.0 mb)
Winds: from the SE (140 degrees) at 7 MPH (6 knots; 3.1 m/s)
Visibility: 6 or more miles (10+ km)
Ceiling: at least 12,000 feet AGL
Clouds: sky clear below 12,000 feet AGL
Weather: no significant weather observed at this time